Time;durP1;ratioP1;P1;durP2;ratioP2;P2;SDS_P1;SDS_P2;PMS_P1;PMS_P2;Temp;Humidity;BMP_temperature;BMP_pressure;BME280_temperature;BME280_humidity;BME280_pressure;Samples;Min_cycle;Max_cycle;Signal;HPM_P1;HPM_P2
2022/12/14 00:01:28;;;;;;;57.33;32.53;;;-3272.90;90.00;;;;;;5032985;28;20040;-43
2022/12/14 00:03:56;;;;;;;53.65;32.28;;;-3272.90;90.10;;;;;;5033826;28;20036;-42
2022/12/14 00:06:28;;;;;;;49.88;32.08;;;-3273.00;90.20;;;;;;5034407;28;20082;-44
2022/12/14 00:08:57;;;;;;;57.75;30.60;;;-3273.00;90.10;;;;;;5049491;28;20025;-41
2022/12/14 00:11:25;;;;;;;47.67;30.17;;;-3273.00;90.00;;;;;;5033330;28;20017;-43
2022/12/14 00:13:54;;;;;;;49.30;29.95;;;-3272.90;90.00;;;;;;5049767;28;20037;-47
2022/12/14 00:16:22;;;;;;;55.28;28.83;;;-3273.00;90.00;;;;;;5053198;28;20033;-44
2022/12/14 00:18:51;;;;;;;51.30;29.70;;;-3273.00;90.00;;;;;;5050935;28;20029;-43
2022/12/14 00:21:18;;;;;;;53.93;31.07;;;-3273.00;89.90;;;;;;5033365;28;20025;-44
2022/12/14 00:23:49;;;;;;;51.13;28.92;;;-3273.00;89.70;;;;;;5052701;28;20033;-43
2022/12/14 00:26:33;;;;;;;49.92;30.52;;;-3272.90;89.70;;;;;;5051028;28;20025;-43
2022/12/14 00:29:03;;;;;;;51.08;28.95;;;-3272.90;89.70;;;;;;5014212;28;20093;-44
2022/12/14 00:31:30;;;;;;;52.88;30.17;;;-3272.90;89.70;;;;;;5032872;28;20079;-43
2022/12/14 00:33:56;;;;;;;52.85;28.08;;;-3272.90;89.50;;;;;;5047339;28;20107;-42
2022/12/14 00:36:23;;;;;;;46.30;28.48;;;-3272.90;89.50;;;;;;5030479;28;20087;-44
2022/12/14 00:38:51;;;;;;;48.83;27.25;;;-3272.90;89.50;;;;;;5013188;28;20022;-45
2022/12/14 00:41:20;;;;;;;48.13;29.00;;;-3272.90;89.50;;;;;;5040849;28;20083;-42
2022/12/14 00:43:47;;;;;;;53.50;31.60;;;-3272.90;89.40;;;;;;5022485;28;20030;-46
2022/12/14 00:46:14;;;;;;;56.90;28.52;;;-3272.90;89.20;;;;;;5034538;28;20028;-42
2022/12/14 00:48:41;;;;;;;51.25;29.55;;;-3272.80;89.30;;;;;;5052140;28;20119;-43
2022/12/14 00:51:08;;;;;;;57.63;30.45;;;-3272.80;89.20;;;;;;5049357;28;20091;-41
2022/12/14 00:53:35;;;;;;;49.10;28.17;;;-3272.70;89.20;;;;;;5033386;28;20040;-45
2022/12/14 00:56:06;;;;;;;52.70;31.00;;;-3272.70;89.40;;;;;;5032697;28;20084;-42
2022/12/14 00:58:33;;;;;;;52.85;30.40;;;-3272.80;89.40;;;;;;5013601;28;20119;-47
2022/12/14 01:01:05;;;;;;;48.80;27.58;;;-3272.80;89.40;;;;;;5013703;28;20026;-44
2022/12/14 01:03:33;;;;;;;59.20;28.90;;;-3272.70;89.40;;;;;;5013097;28;20053;-45
2022/12/14 01:06:01;;;;;;;49.22;28.05;;;-3272.70;89.30;;;;;;5027746;28;20114;-46
2022/12/14 01:08:34;;;;;;;47.15;29.27;;;-3272.70;89.30;;;;;;5033354;28;20049;-42
2022/12/14 01:11:05;;;;;;;54.50;31.63;;;-3272.60;89.00;;;;;;5031887;28;20051;-41
2022/12/14 01:13:32;;;;;;;47.42;28.35;;;-3272.60;89.20;;;;;;5034626;28;20032;-42
2022/12/14 01:16:04;;;;;;;50.65;28.95;;;-3272.60;89.30;;;;;;5053329;28;20024;-42
2022/12/14 01:18:34;;;;;;;53.83;29.98;;;-3272.60;89.30;;;;;;5051970;28;20025;-43
2022/12/14 01:21:07;;;;;;;;;;;-3272.70;89.30;;;;;;5046138;28;20416;-43
2022/12/14 01:23:34;;;;;;;55.55;26.23;;;-3272.60;89.20;;;;;;5050430;28;20294;-45
2022/12/14 01:26:01;;;;;;;54.97;29.63;;;-3272.60;89.20;;;;;;5045799;28;20029;-43
2022/12/14 01:28:28;;;;;;;49.00;28.17;;;-3272.60;89.10;;;;;;5036245;28;20025;-42
2022/12/14 01:30:54;;;;;;;46.40;27.08;;;-3272.50;89.20;;;;;;5041501;28;20033;-49
2022/12/14 01:33:21;;;;;;;49.90;28.58;;;-3272.50;89.20;;;;;;5012765;28;20084;-42
2022/12/14 01:35:48;;;;;;;48.08;27.88;;;-3272.50;89.10;;;;;;5046159;28;20033;-42
2022/12/14 01:38:15;;;;;;;52.58;29.75;;;-3272.50;89.00;;;;;;5050306;28;20032;-44
2022/12/14 01:40:41;;;;;;;47.40;28.02;;;-3272.40;88.90;;;;;;5030669;28;20033;-44
2022/12/14 01:43:14;;;;;;;44.00;26.27;;;-3272.40;88.90;;;;;;5030538;28;20529;-44
2022/12/14 01:45:42;;;;;;;51.90;28.42;;;-3272.40;88.90;;;;;;5012615;28;20037;-47
2022/12/14 01:48:12;;;;;;;47.33;26.02;;;-3272.40;88.70;;;;;;5013003;28;20069;-43
2022/12/14 01:50:42;;;;;;;46.15;26.63;;;-3272.40;88.80;;;;;;4995665;28;20184;-47
2022/12/14 01:53:18;;;;;;;53.13;30.08;;;-3272.30;88.50;;;;;;5032939;28;20025;-47
2022/12/14 01:55:52;;;;;;;54.00;29.70;;;-3272.30;88.60;;;;;;5049750;28;20481;-45
2022/12/14 01:58:39;;;;;;;51.95;28.52;;;-3272.20;88.60;;;;;;5011552;28;20042;-42
2022/12/14 02:01:05;;;;;;;47.60;28.60;;;-3272.10;88.70;;;;;;5034142;28;20466;-44
2022/12/14 02:03:41;;;;;;;53.65;28.30;;;-3272.10;88.70;;;;;;5031006;28;20045;-46
2022/12/14 02:06:21;;;;;;;52.63;28.33;;;-3272.10;88.90;;;;;;5032582;28;20068;-45
2022/12/14 02:08:51;;;;;;;48.83;27.27;;;-3272.10;89.00;;;;;;5042279;28;20090;-41
2022/12/14 02:11:41;;;;;;;48.50;27.02;;;-3272.10;89.10;;;;;;5040599;28;20026;-44
2022/12/14 02:14:07;;;;;;;43.13;26.77;;;-3272.10;89.10;;;;;;5010824;28;20046;-44
2022/12/14 02:16:34;;;;;;;51.92;29.88;;;-3272.10;89.00;;;;;;5032497;28;20120;-45
2022/12/14 02:19:01;;;;;;;45.60;25.50;;;-3272.10;89.10;;;;;;5050665;28;20064;-43
2022/12/14 02:21:36;;;;;;;47.50;28.65;;;-3272.10;89.10;;;;;;5042485;28;20073;-43
2022/12/14 02:24:30;;;;;;;53.83;28.98;;;-3272.10;89.00;;;;;;5031359;28;20025;-46
2022/12/14 02:27:33;;;;;;;48.63;26.45;;;-3272.10;89.00;;;;;;5031369;28;20443;-45
2022/12/14 02:30:20;;;;;;;46.78;27.83;;;-3272.10;89.00;;;;;;5027579;28;20040;-44
2022/12/14 02:33:06;;;;;;;45.03;26.05;;;-3272.10;89.00;;;;;;5031940;28;20320;-41
2022/12/14 02:35:37;;;;;;;51.00;25.90;;;-3272.10;89.10;;;;;;5026072;28;20030;-44
2022/12/14 02:38:40;;;;;;;41.63;25.60;;;-3272.10;89.30;;;;;;5017755;28;20039;-43
2022/12/14 02:41:37;;;;;;;50.90;25.33;;;-3272.10;89.20;;;;;;5017833;28;20439;-43
2022/12/14 02:44:14;;;;;;;49.67;26.67;;;-3272.10;89.20;;;;;;5023587;28;20034;-42
2022/12/14 02:46:52;;;;;;;49.78;26.80;;;-3272.10;89.10;;;;;;5052907;28;20053;-41
2022/12/14 02:49:36;;;;;;;49.00;26.40;;;-3272.10;89.10;;;;;;5025162;28;20026;-43
2022/12/14 02:52:38;;;;;;;46.25;27.38;;;-3272.10;89.10;;;;;;5016062;28;20455;-44
2022/12/14 02:55:30;;;;;;;43.70;25.45;;;-3272.10;89.10;;;;;;5031213;28;20037;-42
2022/12/14 02:58:04;;;;;;;53.85;26.60;;;-3272.10;89.00;;;;;;5034732;28;20120;-42
2022/12/14 03:00:33;;;;;;;54.70;24.30;;;-3272.00;88.80;;;;;;5034441;28;20085;-42
2022/12/14 03:03:02;;;;;;;50.97;26.65;;;-3271.90;88.90;;;;;;5041806;28;20090;-43
2022/12/14 03:05:28;;;;;;;41.92;23.83;;;-3272.00;88.90;;;;;;5052153;28;20090;-43
2022/12/14 03:08:00;;;;;;;51.03;25.17;;;-3272.00;88.90;;;;;;5016328;28;20025;-42
2022/12/14 03:10:46;;;;;;;48.70;23.67;;;-3272.00;89.00;;;;;;5015629;28;20088;-42
2022/12/14 03:13:46;;;;;;;47.20;23.30;;;-3272.00;88.80;;;;;;5024961;28;20038;-41
2022/12/14 03:16:20;;;;;;;46.20;28.13;;;-3272.00;88.90;;;;;;5015707;28;20026;-42
2022/12/14 03:18:59;;;;;;;44.03;25.45;;;-3272.00;88.80;;;;;;5025638;28;20030;-41
2022/12/14 03:21:30;;;;;;;41.72;20.67;;;-3272.00;88.80;;;;;;5045715;28;20056;-43
2022/12/14 03:24:01;;;;;;;45.22;24.05;;;-3272.00;88.60;;;;;;5055260;28;20025;-42
2022/12/14 03:26:41;;;;;;;47.22;24.40;;;-3271.90;88.70;;;;;;5053775;28;20029;-41
2022/12/14 03:29:17;;;;;;;45.22;23.88;;;-3271.90;88.60;;;;;;5048782;28;20370;-44
2022/12/14 03:31:59;;;;;;;43.13;23.42;;;-3271.90;88.70;;;;;;5035075;28;20053;-43
2022/12/14 03:34:38;;;;;;;43.28;23.17;;;-3271.90;88.60;;;;;;5034298;28;20686;-45
2022/12/14 03:37:17;;;;;;;41.72;23.27;;;-3271.90;88.40;;;;;;5030316;28;20219;-42
2022/12/14 03:39:44;;;;;;;;;;;-3271.90;88.60;;;;;;5015616;28;20041;-44
2022/12/14 03:42:22;;;;;;;40.50;21.70;;;-3271.90;88.20;;;;;;5017754;28;20263;-43
2022/12/14 03:45:08;;;;;;;41.75;22.35;;;-3271.90;88.20;;;;;;5019228;28;20435;-43
2022/12/14 03:48:08;;;;;;;42.65;23.33;;;-3271.80;88.20;;;;;;5034015;28;20056;-44
2022/12/14 03:50:59;;;;;;;45.95;23.25;;;-3271.70;88.10;;;;;;5033452;28;20021;-42
2022/12/14 03:53:40;;;;;;;42.08;23.20;;;-3271.70;88.10;;;;;;5034543;28;20116;-43
2022/12/14 03:56:23;;;;;;;47.38;23.63;;;-3271.70;88.00;;;;;;5033502;28;20119;-42
2022/12/14 03:59:21;;;;;;;41.38;22.48;;;-3271.70;88.10;;;;;;5029032;28;20045;-43
2022/12/14 04:02:08;;;;;;;42.13;21.07;;;-3271.70;88.00;;;;;;5033986;28;20036;-44
2022/12/14 04:04:56;;;;;;;42.25;21.52;;;-3271.70;88.00;;;;;;5034477;28;20359;-43
2022/12/14 04:07:48;;;;;;;37.10;21.77;;;-3271.70;88.10;;;;;;5033894;28;20100;-42
2022/12/14 04:19:00;;;;;;;42.90;23.35;;;-3271.70;88.10;;;;;;5034131;28;20044;-43
2022/12/14 04:21:59;;;;;;;38.25;21.23;;;-3271.70;88.00;;;;;;5033970;28;20417;-42
2022/12/14 04:31:04;;;;;;;37.95;22.40;;;-3271.60;87.90;;;;;;5027101;28;20108;-44
2022/12/14 04:33:46;;;;;;;43.13;23.38;;;-3271.60;87.90;;;;;;5022222;28;20026;-43
2022/12/14 04:36:21;;;;;;;38.78;20.15;;;-3271.60;87.70;;;;;;5026925;28;20470;-43
2022/12/14 04:38:54;;;;;;;39.97;21.05;;;-3271.60;87.60;;;;;;5030045;28;20096;-44
2022/12/14 04:41:25;;;;;;;39.92;21.65;;;-3271.50;87.50;;;;;;5032743;28;20057;-45
2022/12/14 04:43:56;;;;;;;38.53;22.08;;;-3271.60;87.70;;;;;;5032531;28;20041;-43
2022/12/14 04:46:28;;;;;;;40.63;22.02;;;-3271.50;87.70;;;;;;5038760;28;20017;-45
2022/12/14 04:49:18;;;;;;;38.95;22.38;;;-3271.60;87.70;;;;;;5045467;28;20057;-43
2022/12/14 04:52:33;;;;;;;42.42;22.13;;;-3271.60;87.60;;;;;;5022787;28;20032;-45
2022/12/14 04:55:24;;;;;;;37.92;20.05;;;-3271.60;87.70;;;;;;5030610;28;20081;-42
2022/12/14 04:58:01;;;;;;;39.55;21.80;;;-3271.60;87.60;;;;;;5016406;28;20076;-43
2022/12/14 05:00:34;;;;;;;45.17;21.67;;;-3271.60;87.60;;;;;;5014182;28;20117;-43
2022/12/14 05:03:37;;;;;;;43.30;21.08;;;-3271.60;87.70;;;;;;5016830;28;20029;-41
2022/12/14 05:06:31;;;;;;;37.65;19.67;;;-3271.60;87.60;;;;;;5020585;28;20510;-44
2022/12/14 05:09:27;;;;;;;36.90;20.52;;;-3271.60;87.40;;;;;;5030700;28;20025;-48
2022/12/14 05:12:30;;;;;;;37.17;20.10;;;-3271.60;87.40;;;;;;5030359;28;20030;-42
2022/12/14 05:15:09;;;;;;;40.20;20.45;;;-3271.50;87.20;;;;;;5025345;28;20030;-42
2022/12/14 05:17:40;;;;;;;32.50;20.35;;;-3271.50;87.20;;;;;;5015802;28;20038;-41
2022/12/14 05:20:20;;;;;;;39.47;20.95;;;-3271.40;87.20;;;;;;5043900;28;20036;-46
2022/12/14 05:22:48;;;;;;;37.55;22.00;;;-3271.50;87.40;;;;;;5051823;28;20055;-46
2022/12/14 05:25:15;;;;;;;41.33;20.50;;;-3271.50;87.30;;;;;;5052762;28;20100;-41
2022/12/14 05:27:43;;;;;;;32.22;19.35;;;-3271.50;87.40;;;;;;5051436;28;20798;-41
2022/12/14 05:30:10;;;;;;;37.08;20.75;;;-3271.50;87.30;;;;;;5013161;28;20101;-42
2022/12/14 05:32:38;;;;;;;37.70;20.17;;;-3271.40;87.30;;;;;;5026572;28;20033;-44
2022/12/14 05:35:06;;;;;;;38.38;20.30;;;-3271.40;87.40;;;;;;5032722;28;20029;-41
2022/12/14 05:37:32;;;;;;;41.85;20.67;;;-3271.40;87.50;;;;;;5032633;28;20141;-41
2022/12/14 05:39:59;;;;;;;36.42;19.20;;;-3271.50;87.40;;;;;;5018897;28;20034;-42
2022/12/14 05:42:26;;;;;;;46.10;23.60;;;-3271.50;87.30;;;;;;5029938;28;20308;-42
2022/12/14 05:44:55;;;;;;;38.33;20.63;;;-3271.50;87.30;;;;;;5031141;28;20040;-42
2022/12/14 05:47:24;;;;;;;40.90;22.23;;;-3271.50;87.30;;;;;;5023943;28;20030;-42
2022/12/14 05:49:51;;;;;;;43.97;20.50;;;-3271.50;87.10;;;;;;5027091;28;20033;-43
2022/12/14 05:52:20;;;;;;;43.67;22.48;;;-3271.50;87.40;;;;;;5019688;28;20025;-42
2022/12/14 05:54:47;;;;;;;37.03;19.00;;;-3271.50;87.40;;;;;;5035264;28;20034;-42
2022/12/14 05:57:14;;;;;;;41.45;21.15;;;-3271.50;87.40;;;;;;5021464;28;20038;-44
2022/12/14 05:59:40;;;;;;;40.13;19.90;;;-3271.50;87.30;;;;;;5021437;28;20041;-42
2022/12/14 06:02:07;;;;;;;34.50;19.10;;;-3271.50;87.40;;;;;;5022412;28;20458;-43
2022/12/14 06:04:34;;;;;;;34.50;19.50;;;-3271.60;87.30;;;;;;5016485;28;20033;-44
2022/12/14 06:07:01;;;;;;;38.63;20.13;;;-3271.50;87.20;;;;;;5020555;28;20021;-42
2022/12/14 06:09:28;;;;;;;38.55;20.63;;;-3271.50;87.10;;;;;;5018059;28;20033;-44
2022/12/14 06:11:57;;;;;;;42.42;21.40;;;-3271.50;87.20;;;;;;5016733;28;20033;-47
2022/12/14 06:14:24;;;;;;;33.78;17.83;;;-3271.50;87.20;;;;;;5021896;28;20030;-48
2022/12/14 06:16:52;;;;;;;41.70;21.90;;;-3271.50;87.00;;;;;;5030594;28;20044;-42
2022/12/14 06:19:19;;;;;;;36.53;19.27;;;-3271.50;87.10;;;;;;5023378;28;20024;-42
2022/12/14 06:21:46;;;;;;;33.45;18.33;;;-3271.50;87.00;;;;;;5029366;28;20026;-41
2022/12/14 06:24:14;;;;;;;38.75;19.67;;;-3271.50;87.30;;;;;;5027939;28;20100;-42
2022/12/14 06:26:41;;;;;;;35.40;18.90;;;-3271.50;87.10;;;;;;5029055;28;20021;-41
2022/12/14 06:29:14;;;;;;;36.95;18.98;;;-3271.50;87.10;;;;;;5024652;28;20018;-43
2022/12/14 06:31:41;;;;;;;39.55;18.75;;;-3271.50;87.10;;;;;;5026926;28;20037;-44
2022/12/14 06:34:09;;;;;;;37.53;18.75;;;-3271.50;87.00;;;;;;5025656;28;20665;-42
2022/12/14 06:36:38;;;;;;;35.55;19.60;;;-3271.60;86.90;;;;;;5025549;28;20053;-45
2022/12/14 06:39:11;;;;;;;33.05;17.67;;;-3271.50;86.60;;;;;;5026672;28;20112;-42
2022/12/14 06:41:41;;;;;;;36.17;17.92;;;-3271.40;86.50;;;;;;5020058;28;20084;-43
2022/12/14 06:44:13;;;;;;;37.15;20.60;;;-3271.40;86.70;;;;;;5014905;28;20034;-43
2022/12/14 06:46:41;;;;;;;36.47;17.55;;;-3271.40;86.60;;;;;;5023409;28;20075;-44
2022/12/14 06:49:15;;;;;;;36.33;17.55;;;-3271.40;86.70;;;;;;5029301;28;20037;-42
2022/12/14 06:51:43;;;;;;;32.40;17.90;;;-3271.40;86.70;;;;;;5034001;28;20812;-43
2022/12/14 06:54:10;;;;;;;34.50;20.02;;;-3271.40;87.00;;;;;;5049847;28;20362;-41
2022/12/14 06:56:39;;;;;;;29.75;17.60;;;-3271.40;87.00;;;;;;5039456;28;20025;-42
2022/12/14 06:59:10;;;;;;;40.78;19.50;;;-3271.50;87.00;;;;;;5034144;28;20049;-45
2022/12/14 07:01:38;;;;;;;33.72;17.63;;;-3271.40;86.90;;;;;;5031543;28;20057;-44
2022/12/14 07:04:06;;;;;;;35.35;19.50;;;-3271.40;86.90;;;;;;5034164;28;20033;-45
2022/12/14 07:06:36;;;;;;;34.22;19.13;;;-3271.40;86.90;;;;;;5034978;28;20025;-43
2022/12/14 07:09:04;;;;;;;37.83;19.83;;;-3271.40;86.90;;;;;;5021769;28;20022;-47
2022/12/14 07:11:32;;;;;;;31.47;17.73;;;-3271.50;87.20;;;;;;5026755;28;20030;-43
2022/12/14 07:14:05;;;;;;;34.45;19.48;;;-3271.50;87.10;;;;;;5022434;28;20418;-43
2022/12/14 07:16:35;;;;;;;32.22;17.23;;;-3271.50;87.20;;;;;;5021940;28;20041;-42
2022/12/14 07:19:03;;;;;;;37.65;19.02;;;-3271.50;87.10;;;;;;5024222;28;20037;-41
2022/12/14 07:21:31;;;;;;;32.58;19.10;;;-3271.50;87.20;;;;;;5029680;28;20493;-45
2022/12/14 07:23:59;;;;;;;32.90;19.00;;;-3271.50;87.20;;;;;;5033552;28;20366;-42
2022/12/14 07:26:27;;;;;;;32.95;19.52;;;-3271.50;87.30;;;;;;5047663;28;20075;-41
2022/12/14 07:28:59;;;;;;;31.48;17.63;;;-3271.50;87.20;;;;;;5042607;28;20029;-44
2022/12/14 07:31:30;;;;;;;32.90;18.30;;;-3271.50;87.30;;;;;;5030301;28;20121;-44
2022/12/14 07:33:58;;;;;;;31.77;20.05;;;-3271.50;87.40;;;;;;5021747;28;20038;-42
2022/12/14 07:36:27;;;;;;;41.30;19.08;;;-3271.50;87.20;;;;;;5014748;28;20605;-43
2022/12/14 07:38:54;;;;;;;36.65;20.42;;;-3271.50;87.10;;;;;;5014785;28;20030;-43
2022/12/14 07:41:26;;;;;;;37.75;20.50;;;-3271.50;87.00;;;;;;5021846;28;20101;-44
2022/12/14 07:43:54;;;;;;;32.60;17.23;;;-3271.50;87.00;;;;;;5035400;28;20041;-43
2022/12/14 07:46:24;;;;;;;33.65;17.45;;;-3271.50;87.00;;;;;;5032659;28;20044;-43
2022/12/14 07:48:52;;;;;;;38.53;21.30;;;-3271.60;87.10;;;;;;5033735;28;20021;-44
2022/12/14 07:51:22;;;;;;;34.20;17.15;;;-3271.60;86.90;;;;;;5033830;28;20108;-47
2022/12/14 07:53:52;;;;;;;34.00;19.27;;;-3271.60;86.90;;;;;;5030409;28;20105;-46
2022/12/14 07:56:24;;;;;;;33.92;18.02;;;-3271.60;87.00;;;;;;5029258;28;20474;-44
2022/12/14 07:58:50;;;;;;;31.90;16.92;;;-3271.60;86.80;;;;;;5028286;28;20152;-41
2022/12/14 08:01:21;;;;;;;34.55;19.00;;;-3271.60;86.70;;;;;;5031253;28;20116;-44
2022/12/14 08:03:54;;;;;;;29.23;16.95;;;-3271.60;86.60;;;;;;5039499;28;20132;-42
2022/12/14 08:06:23;;;;;;;28.67;16.88;;;-3271.50;86.40;;;;;;5028866;28;20030;-44
2022/12/14 08:08:51;;;;;;;29.20;17.83;;;-3271.40;86.40;;;;;;5016058;28;20051;-42
2022/12/14 08:11:21;;;;;;;33.47;18.17;;;-3271.40;86.50;;;;;;5024811;28;20040;-41
2022/12/14 08:13:59;;;;;;;37.58;18.67;;;-3271.40;86.70;;;;;;5031996;28;20048;-43
2022/12/14 08:16:30;;;;;;;31.58;17.08;;;-3271.40;86.50;;;;;;5033973;28;20072;-44
2022/12/14 08:18:58;;;;;;;30.45;17.50;;;-3271.50;86.60;;;;;;5033311;28;20025;-47
2022/12/14 08:21:26;;;;;;;29.23;16.65;;;-3271.50;86.70;;;;;;5032138;28;20339;-43
2022/12/14 08:23:56;;;;;;;30.70;16.10;;;-3271.60;86.70;;;;;;5032423;28;20117;-43
2022/12/14 08:26:24;;;;;;;31.70;17.65;;;-3271.60;86.70;;;;;;5033253;28;20068;-44
2022/12/14 08:28:53;;;;;;;32.95;16.63;;;-3271.60;86.70;;;;;;5033155;28;20033;-44
2022/12/14 08:31:22;;;;;;;26.80;16.58;;;-3271.70;86.70;;;;;;5021870;28;20022;-42
2022/12/14 08:33:52;;;;;;;36.67;17.88;;;-3271.70;86.60;;;;;;5024298;28;20048;-44
2022/12/14 08:36:23;;;;;;;30.48;15.65;;;-3271.70;86.60;;;;;;5041272;28;20098;-41
2022/12/14 08:38:57;;;;;;;28.45;15.93;;;-3271.70;86.40;;;;;;5028054;28;20087;-42
2022/12/14 08:41:26;;;;;;;34.10;17.60;;;-3271.70;86.50;;;;;;5028735;28;20454;-43
2022/12/14 08:43:59;;;;;;;33.23;17.53;;;-3271.70;86.60;;;;;;5024609;28;20044;-42
2022/12/14 08:46:27;;;;;;;31.58;18.38;;;-3271.80;86.70;;;;;;5011769;28;20365;-43
2022/12/14 08:48:56;;;;;;;31.60;15.30;;;-3271.80;86.90;;;;;;5027145;28;20510;-41
2022/12/14 08:51:24;;;;;;;32.78;16.70;;;-3271.80;87.00;;;;;;5025618;28;20379;-41
2022/12/14 08:53:52;;;;;;;31.00;16.45;;;-3271.90;87.20;;;;;;5031966;28;20044;-42
2022/12/14 08:56:25;;;;;;;30.52;16.17;;;-3271.90;87.10;;;;;;5032473;28;20032;-42
2022/12/14 08:58:52;;;;;;;29.38;17.23;;;-3272.00;87.10;;;;;;5035677;28;20085;-41
2022/12/14 09:01:25;;;;;;;27.25;15.30;;;-3272.10;87.20;;;;;;5030695;28;20033;-43
2022/12/14 09:03:52;;;;;;;34.63;17.83;;;-3272.20;87.00;;;;;;5032327;28;20175;-45
2022/12/14 09:06:22;;;;;;;33.20;17.27;;;-3272.30;86.90;;;;;;5031942;28;20036;-42
2022/12/14 09:08:51;;;;;;;30.63;15.93;;;-3272.40;86.70;;;;;;5032309;28;20018;-44
2022/12/14 09:11:19;;;;;;;33.80;17.88;;;-3272.50;86.90;;;;;;5037077;28;20033;-43
2022/12/14 09:13:47;;;;;;;28.38;17.73;;;-3272.60;86.80;;;;;;5024175;28;20044;-45
2022/12/14 09:16:19;;;;;;;31.70;16.40;;;-3272.70;86.60;;;;;;5025196;28;20098;-44
2022/12/14 09:18:49;;;;;;;30.00;17.23;;;-3272.80;86.30;;;;;;5030863;28;20041;-42
2022/12/14 09:21:16;;;;;;;28.65;16.90;;;-3272.80;86.30;;;;;;5019874;28;20087;-45
2022/12/14 09:23:44;;;;;;;32.47;16.33;;;-3272.80;86.40;;;;;;5021555;28;20116;-42
2022/12/14 09:26:17;;;;;;;27.20;15.30;;;-3272.80;86.40;;;;;;5021682;28;20029;-42
2022/12/14 09:28:51;;;;;;;28.38;15.73;;;-3272.90;86.50;;;;;;5031545;28;20033;-42
2022/12/14 09:31:21;;;;;;;27.85;15.10;;;-3273.00;86.60;;;;;;5021730;28;20037;-46
2022/12/14 09:33:48;;;;;;;30.98;17.00;;;-3273.00;86.70;;;;;;5044309;28;20037;-43
2022/12/14 09:36:18;;;;;;;23.23;13.95;;;-3273.00;86.60;;;;;;5028770;28;20052;-43
2022/12/14 09:38:46;;;;;;;26.42;15.43;;;-3273.10;86.70;;;;;;5031062;28;20044;-43
2022/12/14 09:41:30;;;;;;;30.63;17.00;;;-3273.20;86.60;;;;;;5039185;28;20058;-43
2022/12/14 09:44:04;;;;;;;32.15;17.70;;;-3273.30;86.70;;;;;;5031240;28;20076;-43
2022/12/14 09:47:01;;;;;;;30.65;17.90;;;-3273.40;86.60;;;;;;5017931;28;20029;-45
2022/12/14 09:49:50;;;;;;;30.15;16.55;;;-3273.50;86.70;;;;;;5028598;28;20473;-42
2022/12/14 09:52:22;;;;;;;23.73;15.02;;;-3273.60;86.20;;;;;;5025778;28;20084;-45
2022/12/14 09:54:49;;;;;;;28.65;15.52;;;-3273.70;86.10;;;;;;5025140;28;20033;-43
2022/12/14 09:57:36;;;;;;;26.98;14.52;;;-3273.80;85.90;;;;;;5030333;28;20032;-46
2022/12/14 10:00:09;;;;;;;21.58;13.98;;;-3273.80;85.80;;;;;;5029001;28;20053;-44
2022/12/14 10:03:13;;;;;;;29.00;14.55;;;-3273.80;85.70;;;;;;5031394;28;20029;-41
2022/12/14 10:06:14;;;;;;;25.75;14.18;;;-3273.90;85.70;;;;;;5024036;28;20029;-46
2022/12/14 10:08:55;;;;;;;26.13;13.10;;;-3273.90;85.70;;;;;;5023860;28;20113;-43
2022/12/14 10:11:54;;;;;;;19.70;12.57;;;-3274.00;85.80;;;;;;5028694;28;20466;-45
2022/12/14 10:15:02;;;;;;;26.77;15.23;;;-3274.00;85.60;;;;;;5027677;28;20171;-42
2022/12/14 10:18:08;;;;;;;26.63;15.65;;;-3274.10;85.60;;;;;;5032849;28;20044;-41
2022/12/14 10:21:00;;;;;;;26.67;14.57;;;-3274.10;85.60;;;;;;5031461;28;20030;-41
2022/12/14 10:23:28;;;;;;;23.75;13.98;;;-3274.20;85.60;;;;;;5031845;28;20108;-42
2022/12/14 10:25:59;;;;;;;24.08;14.30;;;-3274.20;85.60;;;;;;5014010;28;20033;-44
2022/12/14 10:28:42;;;;;;;25.45;14.80;;;-3274.20;85.70;;;;;;5031514;28;20459;-42
2022/12/14 10:31:18;;;;;;;25.60;13.15;;;-3274.20;85.50;;;;;;5014345;28;20036;-44
2022/12/14 10:33:45;;;;;;;22.75;13.20;;;-3274.20;85.60;;;;;;5036805;28;20029;-41
2022/12/14 10:36:38;;;;;;;24.50;15.40;;;-3274.20;85.70;;;;;;5026669;28;20041;-41
2022/12/14 10:39:47;;;;;;;24.73;14.48;;;-3274.20;85.70;;;;;;5031238;28;20041;-43
2022/12/14 10:42:35;;;;;;;22.48;12.80;;;-3274.30;86.00;;;;;;5037067;28;20029;-41
2022/12/14 10:45:38;;;;;;;25.15;15.45;;;-3274.30;86.20;;;;;;5031190;28;20808;-42
2022/12/14 10:48:31;;;;;;;24.80;13.95;;;-3274.30;86.10;;;;;;5019852;28;20033;-41
2022/12/14 10:51:23;;;;;;;20.85;13.02;;;-3274.30;86.10;;;;;;5036796;28;20506;-41
2022/12/14 10:54:02;;;;;;;21.35;12.82;;;-3274.40;86.10;;;;;;5031776;28;20113;-41
2022/12/14 10:56:34;;;;;;;24.67;14.60;;;-3274.40;86.10;;;;;;5027077;28;20087;-41
2022/12/14 10:59:22;;;;;;;25.20;13.30;;;-3274.40;86.00;;;;;;5023120;28;20132;-41
2022/12/14 11:01:56;;;;;;;22.80;12.88;;;-3274.50;86.00;;;;;;5018911;28;20048;-41
2022/12/14 11:04:23;;;;;;;22.27;12.02;;;-3274.50;86.10;;;;;;5033950;28;20393;-42
2022/12/14 11:06:51;;;;;;;20.77;12.55;;;-3274.50;86.10;;;;;;5022523;28;20022;-42
2022/12/14 11:09:22;;;;;;;20.63;13.52;;;-3274.60;86.20;;;;;;5034303;28;20039;-43
2022/12/14 11:12:14;;;;;;;20.85;13.45;;;-3274.60;86.10;;;;;;5033800;28;20018;-44
2022/12/14 11:14:59;;;;;;;19.48;13.15;;;-3274.60;86.20;;;;;;5033862;28;20009;-41
2022/12/14 11:17:37;;;;;;;20.45;12.35;;;-3274.60;86.20;;;;;;5034576;28;20058;-42
2022/12/14 11:20:16;;;;;;;23.73;13.93;;;-3274.60;86.10;;;;;;5034417;28;20056;-42
2022/12/14 11:22:47;;;;;;;19.80;14.15;;;-3274.60;86.10;;;;;;5028506;28;20041;-43
2022/12/14 11:25:39;;;;;;;21.42;14.15;;;-3274.70;86.10;;;;;;5026701;28;20327;-41
2022/12/14 11:28:35;;;;;;;21.45;12.05;;;-3274.80;86.00;;;;;;5032877;28;20026;-41
2022/12/14 11:31:26;;;;;;;25.92;14.20;;;-3274.80;86.00;;;;;;5026274;28;20067;-43
2022/12/14 11:33:55;;;;;;;20.17;12.65;;;-3274.70;85.80;;;;;;5034235;28;20538;-41
2022/12/14 11:36:35;;;;;;;21.38;14.65;;;-3274.80;85.70;;;;;;5032587;28;20037;-41
2022/12/14 11:39:23;;;;;;;21.77;13.20;;;-3274.80;85.60;;;;;;5029317;28;20354;-42
2022/12/14 11:42:14;;;;;;;19.90;12.35;;;-3274.80;85.50;;;;;;5030636;28;20037;-41
2022/12/14 11:44:41;;;;;;;16.52;10.85;;;-3274.80;85.40;;;;;;5033919;28;20139;-43
2022/12/14 11:47:14;;;;;;;18.73;11.48;;;-3274.80;84.80;;;;;;5029538;28;20442;-41
2022/12/14 11:49:59;;;;;;;17.67;12.10;;;-3274.80;84.80;;;;;;5034086;28;20021;-42
2022/12/14 11:52:39;;;;;;;20.83;12.93;;;-3274.80;84.40;;;;;;5032019;28;20026;-42
2022/12/14 11:55:25;;;;;;;23.15;12.65;;;-3274.80;84.20;;;;;;5019750;28;20038;-41
2022/12/14 11:57:56;;;;;;;17.70;12.00;;;-3274.80;84.30;;;;;;5033738;28;20033;-43
2022/12/14 12:00:31;;;;;;;19.30;12.05;;;-3274.90;84.40;;;;;;5032793;28;20041;-43
2022/12/14 12:03:22;;;;;;;23.00;12.32;;;-3274.90;84.30;;;;;;5023753;28;20124;-46
2022/12/14 12:05:48;;;;;;;19.35;12.45;;;-3274.90;83.90;;;;;;5033142;28;20028;-45
2022/12/14 12:08:37;;;;;;;19.85;14.68;;;-3274.90;84.20;;;;;;5031753;28;20056;-43
2022/12/14 12:11:13;;;;;;;23.08;12.75;;;-3274.80;84.30;;;;;;5029206;28;20025;-43
2022/12/14 12:13:44;;;;;;;20.15;12.40;;;-3274.90;84.60;;;;;;5031213;28;20394;-45
2022/12/14 12:16:20;;;;;;;16.13;10.13;;;-3274.90;84.50;;;;;;5025710;28;20167;-43
2022/12/14 12:19:10;;;;;;;19.20;10.07;;;-3274.90;84.40;;;;;;5032174;28;20018;-43
2022/12/14 12:21:43;;;;;;;20.55;11.07;;;-3274.90;84.30;;;;;;5025568;28;20028;-43
2022/12/14 12:24:30;;;;;;;16.25;9.85;;;-3275.00;84.30;;;;;;5014081;28;20521;-44
2022/12/14 12:27:10;;;;;;;18.38;11.23;;;-3275.10;84.20;;;;;;5027779;28;20036;-48
2022/12/14 12:30:12;;;;;;;22.75;12.73;;;-3275.10;84.00;;;;;;5026821;28;20040;-42
2022/12/14 12:32:52;;;;;;;19.05;10.60;;;-3275.10;84.00;;;;;;5031438;28;20025;-42
2022/12/14 12:35:28;;;;;;;19.50;12.20;;;-3275.10;84.30;;;;;;5030612;28;20494;-42
2022/12/14 12:38:11;;;;;;;20.58;12.95;;;-3275.10;84.30;;;;;;5031424;28;20033;-41
2022/12/14 12:40:59;;;;;;;19.70;12.38;;;-3275.20;84.60;;;;;;5031440;28;20040;-42
2022/12/14 12:43:34;;;;;;;20.60;12.80;;;-3275.20;84.60;;;;;;5030458;28;20032;-41
2022/12/14 12:46:10;;;;;;;19.63;10.70;;;-3275.20;84.70;;;;;;5025304;28;20041;-42
2022/12/14 12:49:05;;;;;;;17.73;10.35;;;-3275.20;84.70;;;;;;5032536;28;20024;-44
2022/12/14 12:51:41;;;;;;;18.20;11.10;;;-3275.20;84.90;;;;;;5027849;28;20025;-41
2022/12/14 12:54:17;;;;;;;19.08;11.57;;;-3275.20;84.70;;;;;;5031860;28;20037;-43